sensor_id;sensor_type;location;lat;lon;timestamp;temperature;humidity
4293;DHT22;2160;51.172;6.808;2022-08-18T04:01:10;21.70;99.90
4293;DHT22;2160;51.172;6.808;2022-08-18T04:03:41;21.90;99.90
4293;DHT22;2160;51.172;6.808;2022-08-18T04:06:14;22.00;99.90
4293;DHT22;2160;51.172;6.808;2022-08-18T04:08:41;22.00;99.90
4293;DHT22;2160;51.172;6.808;2022-08-18T04:11:09;22.00;99.90
4293;DHT22;2160;51.172;6.808;2022-08-18T04:13:39;21.90;99.90
4293;DHT22;2160;51.172;6.808;2022-08-18T04:16:06;22.00;99.90
4293;DHT22;2160;51.172;6.808;2022-08-18T04:18:35;22.10;99.90
4293;DHT22;2160;51.172;6.808;2022-08-18T04:21:02;22.10;99.90
4293;DHT22;2160;51.172;6.808;2022-08-18T04:23:35;22.20;99.90
4293;DHT22;2160;51.172;6.808;2022-08-18T04:26:04;22.30;99.90
4293;DHT22;2160;51.172;6.808;2022-08-18T04:28:32;22.30;99.90
4293;DHT22;2160;51.172;6.808;2022-08-18T04:31:05;22.30;99.90
4293;DHT22;2160;51.172;6.808;2022-08-18T04:33:33;22.30;99.90
4293;DHT22;2160;51.172;6.808;2022-08-18T04:36:07;22.40;99.90
4293;DHT22;2160;51.172;6.808;2022-08-18T04:38:34;22.50;99.90
4293;DHT22;2160;51.172;6.808;2022-08-18T04:41:01;22.50;99.90
4293;DHT22;2160;51.172;6.808;2022-08-18T04:43:29;22.50;99.90
4293;DHT22;2160;51.172;6.808;2022-08-18T04:45:56;22.50;99.90
4293;DHT22;2160;51.172;6.808;2022-08-18T04:48:27;22.50;99.90
4293;DHT22;2160;51.172;6.808;2022-08-18T04:51:06;22.60;99.90
4293;DHT22;2160;51.172;6.808;2022-08-18T04:53:34;22.60;99.90
4293;DHT22;2160;51.172;6.808;2022-08-18T04:56:15;22.50;99.90
4293;DHT22;2160;51.172;6.808;2022-08-18T04:58:45;22.50;99.90
4293;DHT22;2160;51.172;6.808;2022-08-18T05:01:17;22.50;99.90
4293;DHT22;2160;51.172;6.808;2022-08-18T05:03:46;22.50;99.90
4293;DHT22;2160;51.172;6.808;2022-08-18T05:06:15;22.60;99.90
4293;DHT22;2160;51.172;6.808;2022-08-18T05:08:42;22.60;99.90
4293;DHT22;2160;51.172;6.808;2022-08-18T05:11:10;22.70;99.90
4293;DHT22;2160;51.172;6.808;2022-08-18T05:13:37;22.80;99.90
4293;DHT22;2160;51.172;6.808;2022-08-18T05:16:04;22.80;99.90
4293;DHT22;2160;51.172;6.808;2022-08-18T05:18:32;22.80;99.90
4293;DHT22;2160;51.172;6.808;2022-08-18T05:21:03;22.90;99.90
4293;DHT22;2160;51.172;6.808;2022-08-18T05:23:31;22.90;99.90
4293;DHT22;2160;51.172;6.808;2022-08-18T05:26:00;22.90;99.90
4293;DHT22;2160;51.172;6.808;2022-08-18T05:28:28;22.90;99.90
4293;DHT22;2160;51.172;6.808;2022-08-18T05:30:55;23.00;99.90
4293;DHT22;2160;51.172;6.808;2022-08-18T05:33:22;23.00;99.90
4293;DHT22;2160;51.172;6.808;2022-08-18T05:35:52;23.00;99.90
4293;DHT22;2160;51.172;6.808;2022-08-18T05:38:48;23.10;99.90
4293;DHT22;2160;51.172;6.808;2022-08-18T05:41:26;23.10;99.90
4293;DHT22;2160;51.172;6.808;2022-08-18T05:43:58;23.10;99.90
4293;DHT22;2160;51.172;6.808;2022-08-18T05:46:36;23.20;99.90
4293;DHT22;2160;51.172;6.808;2022-08-18T05:49:05;23.20;99.90
4293;DHT22;2160;51.172;6.808;2022-08-18T05:51:36;23.20;99.90
4293;DHT22;2160;51.172;6.808;2022-08-18T05:54:07;23.30;99.90
4293;DHT22;2160;51.172;6.808;2022-08-18T05:56:54;23.30;99.90
4293;DHT22;2160;51.172;6.808;2022-08-18T05:59:26;23.20;99.90
4293;DHT22;2160;51.172;6.808;2022-08-18T06:02:00;23.30;99.90
4293;DHT22;2160;51.172;6.808;2022-08-18T06:04:39;23.20;99.90
4293;DHT22;2160;51.172;6.808;2022-08-18T06:07:11;23.20;99.90
4293;DHT22;2160;51.172;6.808;2022-08-18T06:09:45;23.20;99.90
4293;DHT22;2160;51.172;6.808;2022-08-18T06:12:30;23.20;99.90
4293;DHT22;2160;51.172;6.808;2022-08-18T06:15:02;23.20;99.90
4293;DHT22;2160;51.172;6.808;2022-08-18T06:17:45;23.10;99.90
4293;DHT22;2160;51.172;6.808;2022-08-18T06:20:22;23.20;99.90
4293;DHT22;2160;51.172;6.808;2022-08-18T06:22:56;23.00;99.90
4293;DHT22;2160;51.172;6.808;2022-08-18T06:25:29;22.80;99.90
4293;DHT22;2160;51.172;6.808;2022-08-18T06:28:06;22.90;99.90
4293;DHT22;2160;51.172;6.808;2022-08-18T06:30:48;23.00;99.90
4293;DHT22;2160;51.172;6.808;2022-08-18T06:33:34;23.10;99.90
4293;DHT22;2160;51.172;6.808;2022-08-18T06:36:06;23.20;99.90
4293;DHT22;2160;51.172;6.808;2022-08-18T06:38:44;23.20;99.90
4293;DHT22;2160;51.172;6.808;2022-08-18T06:41:17;23.30;99.90
4293;DHT22;2160;51.172;6.808;2022-08-18T06:43:54;23.20;99.90
4293;DHT22;2160;51.172;6.808;2022-08-18T06:46:38;23.20;99.90
4293;DHT22;2160;51.172;6.808;2022-08-18T06:49:09;23.30;99.90
4293;DHT22;2160;51.172;6.808;2022-08-18T06:51:36;23.40;99.90
4293;DHT22;2160;51.172;6.808;2022-08-18T06:54:04;23.40;99.90
4293;DHT22;2160;51.172;6.808;2022-08-18T06:56:45;23.30;99.90
4293;DHT22;2160;51.172;6.808;2022-08-18T06:59:23;23.40;99.90
4293;DHT22;2160;51.172;6.808;2022-08-18T07:01:55;23.40;99.90
4293;DHT22;2160;51.172;6.808;2022-08-18T07:04:39;23.30;99.90
4293;DHT22;2160;51.172;6.808;2022-08-18T07:07:19;23.20;99.90
4293;DHT22;2160;51.172;6.808;2022-08-18T07:09:47;23.30;99.90
4293;DHT22;2160;51.172;6.808;2022-08-18T07:12:22;23.50;99.90
4293;DHT22;2160;51.172;6.808;2022-08-18T07:14:52;23.50;99.90
4293;DHT22;2160;51.172;6.808;2022-08-18T07:17:22;23.40;99.90
4293;DHT22;2160;51.172;6.808;2022-08-18T07:20:02;23.50;99.90
4293;DHT22;2160;51.172;6.808;2022-08-18T07:22:30;23.50;99.90
4293;DHT22;2160;51.172;6.808;2022-08-18T07:25:00;23.50;99.90
4293;DHT22;2160;51.172;6.808;2022-08-18T07:27:46;23.50;99.90
4293;DHT22;2160;51.172;6.808;2022-08-18T07:30:26;23.50;99.90
4293;DHT22;2160;51.172;6.808;2022-08-18T07:32:57;23.50;99.90
4293;DHT22;2160;51.172;6.808;2022-08-18T07:35:31;23.40;99.90
4293;DHT22;2160;51.172;6.808;2022-08-18T07:38:05;23.40;99.90
4293;DHT22;2160;51.172;6.808;2022-08-18T07:40:41;23.30;99.90
4293;DHT22;2160;51.172;6.808;2022-08-18T07:43:17;23.20;99.90
4293;DHT22;2160;51.172;6.808;2022-08-18T07:45:46;23.20;99.90
4293;DHT22;2160;51.172;6.808;2022-08-18T07:48:17;23.20;99.90
4293;DHT22;2160;51.172;6.808;2022-08-18T07:50:52;23.10;99.90
4293;DHT22;2160;51.172;6.808;2022-08-18T07:53:31;22.80;99.90
4293;DHT22;2160;51.172;6.808;2022-08-18T07:56:04;22.80;99.90
4293;DHT22;2160;51.172;6.808;2022-08-18T07:58:39;23.10;99.90
4293;DHT22;2160;51.172;6.808;2022-08-18T08:01:13;23.10;99.90
4293;DHT22;2160;51.172;6.808;2022-08-18T08:03:49;23.10;99.90
4293;DHT22;2160;51.172;6.808;2022-08-18T08:06:22;23.40;99.90
4293;DHT22;2160;51.172;6.808;2022-08-18T08:08:59;23.50;99.90
4293;DHT22;2160;51.172;6.808;2022-08-18T08:11:38;23.60;99.90
4293;DHT22;2160;51.172;6.808;2022-08-18T08:14:30;23.60;99.90
4293;DHT22;2160;51.172;6.808;2022-08-18T08:17:04;23.50;99.90
4293;DHT22;2160;51.172;6.808;2022-08-18T08:19:45;23.50;99.90
4293;DHT22;2160;51.172;6.808;2022-08-18T08:22:18;23.70;99.90
4293;DHT22;2160;51.172;6.808;2022-08-18T08:24:53;23.80;99.90
4293;DHT22;2160;51.172;6.808;2022-08-18T08:27:27;23.90;99.90
4293;DHT22;2160;51.172;6.808;2022-08-18T08:30:02;23.80;99.90
4293;DHT22;2160;51.172;6.808;2022-08-18T08:32:31;23.80;99.90
4293;DHT22;2160;51.172;6.808;2022-08-18T08:35:04;23.90;99.90
4293;DHT22;2160;51.172;6.808;2022-08-18T08:37:38;24.10;99.90
4293;DHT22;2160;51.172;6.808;2022-08-18T08:40:11;24.10;99.90
4293;DHT22;2160;51.172;6.808;2022-08-18T08:42:45;23.90;99.90
4293;DHT22;2160;51.172;6.808;2022-08-18T08:45:21;24.10;99.90
4293;DHT22;2160;51.172;6.808;2022-08-18T08:47:57;24.10;99.90
4293;DHT22;2160;51.172;6.808;2022-08-18T08:50:29;24.30;99.90
4293;DHT22;2160;51.172;6.808;2022-08-18T08:53:03;24.20;99.90
4293;DHT22;2160;51.172;6.808;2022-08-18T08:55:34;24.20;99.90
4293;DHT22;2160;51.172;6.808;2022-08-18T08:58:16;24.40;99.90
4293;DHT22;2160;51.172;6.808;2022-08-18T09:00:48;24.40;99.90
4293;DHT22;2160;51.172;6.808;2022-08-18T09:03:25;24.30;99.90
4293;DHT22;2160;51.172;6.808;2022-08-18T09:06:05;24.40;99.90
4293;DHT22;2160;51.172;6.808;2022-08-18T09:08:54;24.50;99.90
4293;DHT22;2160;51.172;6.808;2022-08-18T09:11:40;24.60;99.90
4293;DHT22;2160;51.172;6.808;2022-08-18T09:17:44;24.40;99.90
4293;DHT22;2160;51.172;6.808;2022-08-18T09:20:30;24.70;99.90
4293;DHT22;2160;51.172;6.808;2022-08-18T09:23:03;24.90;99.90
4293;DHT22;2160;51.172;6.808;2022-08-18T09:25:44;24.80;99.90
4293;DHT22;2160;51.172;6.808;2022-08-18T09:28:13;24.90;99.90
4293;DHT22;2160;51.172;6.808;2022-08-18T09:30:46;24.70;99.90
4293;DHT22;2160;51.172;6.808;2022-08-18T09:33:29;24.80;99.90
4293;DHT22;2160;51.172;6.808;2022-08-18T09:36:27;24.70;99.90
4293;DHT22;2160;51.172;6.808;2022-08-18T09:39:18;24.60;99.90
4293;DHT22;2160;51.172;6.808;2022-08-18T09:42:08;24.50;99.90
4293;DHT22;2160;51.172;6.808;2022-08-18T09:44:58;24.70;99.90
4293;DHT22;2160;51.172;6.808;2022-08-18T09:48:02;24.80;99.90
4293;DHT22;2160;51.172;6.808;2022-08-18T09:54:04;25.00;99.90
4293;DHT22;2160;51.172;6.808;2022-08-18T09:59:56;24.90;99.90
4293;DHT22;2160;51.172;6.808;2022-08-18T10:05:35;25.10;99.90
4293;DHT22;2160;51.172;6.808;2022-08-18T10:08:36;25.30;99.90
4293;DHT22;2160;51.172;6.808;2022-08-18T10:11:21;25.60;99.90
4293;DHT22;2160;51.172;6.808;2022-08-18T10:14:02;25.70;99.90
4293;DHT22;2160;51.172;6.808;2022-08-18T10:16:41;25.80;99.90
4293;DHT22;2160;51.172;6.808;2022-08-18T10:19:16;25.90;99.90
4293;DHT22;2160;51.172;6.808;2022-08-18T10:22:05;26.00;99.90
4293;DHT22;2160;51.172;6.808;2022-08-18T10:24:37;26.00;99.90
4293;DHT22;2160;51.172;6.808;2022-08-18T10:29:55;26.00;99.90
4293;DHT22;2160;51.172;6.808;2022-08-18T10:32:35;26.10;99.90
4293;DHT22;2160;51.172;6.808;2022-08-18T10:35:04;26.10;99.90
4293;DHT22;2160;51.172;6.808;2022-08-18T10:37:36;26.20;99.90
4293;DHT22;2160;51.172;6.808;2022-08-18T10:40:15;26.20;99.90
4293;DHT22;2160;51.172;6.808;2022-08-18T10:42:44;26.20;99.90
4293;DHT22;2160;51.172;6.808;2022-08-18T10:45:18;26.40;99.90
4293;DHT22;2160;51.172;6.808;2022-08-18T10:47:57;26.20;99.90
4293;DHT22;2160;51.172;6.808;2022-08-18T10:50:25;26.30;99.90
4293;DHT22;2160;51.172;6.808;2022-08-18T10:53:06;26.30;99.90
4293;DHT22;2160;51.172;6.808;2022-08-18T10:55:44;26.30;99.90
4293;DHT22;2160;51.172;6.808;2022-08-18T10:58:34;26.20;99.90
4293;DHT22;2160;51.172;6.808;2022-08-18T11:01:18;26.20;99.90
4293;DHT22;2160;51.172;6.808;2022-08-18T11:04:05;26.10;99.90
4293;DHT22;2160;51.172;6.808;2022-08-18T11:06:39;26.30;99.90
4293;DHT22;2160;51.172;6.808;2022-08-18T11:09:08;26.40;99.90
4293;DHT22;2160;51.172;6.808;2022-08-18T11:11:39;26.70;99.90
4293;DHT22;2160;51.172;6.808;2022-08-18T11:14:29;26.80;99.90
4293;DHT22;2160;51.172;6.808;2022-08-18T11:17:07;27.00;99.90
4293;DHT22;2160;51.172;6.808;2022-08-18T11:19:40;27.10;99.90
4293;DHT22;2160;51.172;6.808;2022-08-18T11:22:20;27.40;99.90
4293;DHT22;2160;51.172;6.808;2022-08-18T11:24:48;27.50;99.90
4293;DHT22;2160;51.172;6.808;2022-08-18T11:27:20;27.60;99.90
4293;DHT22;2160;51.172;6.808;2022-08-18T11:29:48;27.60;99.90
4293;DHT22;2160;51.172;6.808;2022-08-18T11:32:19;27.50;99.90
4293;DHT22;2160;51.172;6.808;2022-08-18T11:34:50;27.50;99.90
4293;DHT22;2160;51.172;6.808;2022-08-18T11:37:25;27.50;99.90
4293;DHT22;2160;51.172;6.808;2022-08-18T11:39:55;27.50;99.90
4293;DHT22;2160;51.172;6.808;2022-08-18T11:42:29;27.50;99.90
4293;DHT22;2160;51.172;6.808;2022-08-18T11:45:05;27.60;99.90
4293;DHT22;2160;51.172;6.808;2022-08-18T11:47:32;27.70;99.90
4293;DHT22;2160;51.172;6.808;2022-08-18T11:50:08;27.70;99.90
4293;DHT22;2160;51.172;6.808;2022-08-18T11:52:47;27.80;99.90
4293;DHT22;2160;51.172;6.808;2022-08-18T11:55:20;27.90;99.90
4293;DHT22;2160;51.172;6.808;2022-08-18T11:57:52;27.90;99.90
4293;DHT22;2160;51.172;6.808;2022-08-18T12:00:40;28.00;99.90
4293;DHT22;2160;51.172;6.808;2022-08-18T12:03:12;28.10;99.90
4293;DHT22;2160;51.172;6.808;2022-08-18T12:05:43;27.90;99.90
4293;DHT22;2160;51.172;6.808;2022-08-18T12:08:20;27.90;99.90
4293;DHT22;2160;51.172;6.808;2022-08-18T12:10:48;27.90;99.90
4293;DHT22;2160;51.172;6.808;2022-08-18T12:13:28;27.90;99.90
4293;DHT22;2160;51.172;6.808;2022-08-18T12:16:12;28.00;99.90
4293;DHT22;2160;51.172;6.808;2022-08-18T12:18:39;28.10;99.90
4293;DHT22;2160;51.172;6.808;2022-08-18T12:21:08;27.90;99.90
4293;DHT22;2160;51.172;6.808;2022-08-18T12:23:38;27.70;99.90
4293;DHT22;2160;51.172;6.808;2022-08-18T12:26:05;27.50;99.90
4293;DHT22;2160;51.172;6.808;2022-08-18T12:28:34;27.50;99.90
4293;DHT22;2160;51.172;6.808;2022-08-18T12:31:01;27.60;99.90
4293;DHT22;2160;51.172;6.808;2022-08-18T12:33:28;27.80;99.90
4293;DHT22;2160;51.172;6.808;2022-08-18T12:35:56;27.70;99.90
4293;DHT22;2160;51.172;6.808;2022-08-18T12:38:23;27.60;99.90
4293;DHT22;2160;51.172;6.808;2022-08-18T12:40:50;27.60;99.90
4293;DHT22;2160;51.172;6.808;2022-08-18T12:43:17;27.60;99.90
4293;DHT22;2160;51.172;6.808;2022-08-18T12:45:46;27.60;99.90
4293;DHT22;2160;51.172;6.808;2022-08-18T12:48:13;27.60;99.90
4293;DHT22;2160;51.172;6.808;2022-08-18T12:50:40;27.50;99.90
4293;DHT22;2160;51.172;6.808;2022-08-18T12:53:08;27.50;99.90
4293;DHT22;2160;51.172;6.808;2022-08-18T12:55:37;27.50;99.90
4293;DHT22;2160;51.172;6.808;2022-08-18T12:58:06;27.60;99.90
4293;DHT22;2160;51.172;6.808;2022-08-18T13:00:33;27.80;99.90
4293;DHT22;2160;51.172;6.808;2022-08-18T13:03:01;27.80;99.90
4293;DHT22;2160;51.172;6.808;2022-08-18T13:05:28;27.80;99.90
4293;DHT22;2160;51.172;6.808;2022-08-18T13:07:57;27.90;99.90
4293;DHT22;2160;51.172;6.808;2022-08-18T13:10:26;28.00;99.90
4293;DHT22;2160;51.172;6.808;2022-08-18T13:12:53;28.10;99.90
4293;DHT22;2160;51.172;6.808;2022-08-18T13:15:20;28.20;99.90
4293;DHT22;2160;51.172;6.808;2022-08-18T13:17:48;28.40;99.90
4293;DHT22;2160;51.172;6.808;2022-08-18T13:20:16;28.60;99.90
4293;DHT22;2160;51.172;6.808;2022-08-18T13:22:43;28.70;99.90
4293;DHT22;2160;51.172;6.808;2022-08-18T13:25:12;28.60;99.90
4293;DHT22;2160;51.172;6.808;2022-08-18T13:27:39;28.50;99.90
4293;DHT22;2160;51.172;6.808;2022-08-18T13:30:09;28.50;99.90
4293;DHT22;2160;51.172;6.808;2022-08-18T13:32:37;28.50;99.90
4293;DHT22;2160;51.172;6.808;2022-08-18T13:35:07;28.60;99.90
4293;DHT22;2160;51.172;6.808;2022-08-18T13:37:36;28.60;99.80
4293;DHT22;2160;51.172;6.808;2022-08-18T13:40:03;28.60;99.90
4293;DHT22;2160;51.172;6.808;2022-08-18T13:42:34;28.70;99.60
4293;DHT22;2160;51.172;6.808;2022-08-18T13:45:07;28.60;99.20
4293;DHT22;2160;51.172;6.808;2022-08-18T13:47:38;28.60;99.60
4293;DHT22;2160;51.172;6.808;2022-08-18T13:50:07;28.60;99.20
4293;DHT22;2160;51.172;6.808;2022-08-18T13:52:37;28.70;98.70
4293;DHT22;2160;51.172;6.808;2022-08-18T13:55:09;28.70;98.20
4293;DHT22;2160;51.172;6.808;2022-08-18T13:57:37;28.70;96.90
4293;DHT22;2160;51.172;6.808;2022-08-18T14:00:07;28.70;97.20
4293;DHT22;2160;51.172;6.808;2022-08-18T14:02:38;28.90;96.90
4293;DHT22;2160;51.172;6.808;2022-08-18T14:05:06;29.10;96.50
4293;DHT22;2160;51.172;6.808;2022-08-18T14:07:38;29.20;96.60
4293;DHT22;2160;51.172;6.808;2022-08-18T14:10:07;29.40;96.40
4293;DHT22;2160;51.172;6.808;2022-08-18T14:12:35;29.60;95.50
4293;DHT22;2160;51.172;6.808;2022-08-18T14:15:04;29.70;95.60
4293;DHT22;2160;51.172;6.808;2022-08-18T14:17:33;29.80;94.50
4293;DHT22;2160;51.172;6.808;2022-08-18T14:20:00;29.90;94.50
4293;DHT22;2160;51.172;6.808;2022-08-18T14:22:46;29.80;92.70
4293;DHT22;2160;51.172;6.808;2022-08-18T14:25:41;29.80;93.50
4293;DHT22;2160;51.172;6.808;2022-08-18T14:28:25;30.00;92.70
4293;DHT22;2160;51.172;6.808;2022-08-18T14:30:53;29.80;92.40
4293;DHT22;2160;51.172;6.808;2022-08-18T14:33:22;29.70;92.20
4293;DHT22;2160;51.172;6.808;2022-08-18T14:35:50;29.70;90.70
4293;DHT22;2160;51.172;6.808;2022-08-18T14:38:18;29.60;90.90
4293;DHT22;2160;51.172;6.808;2022-08-18T14:40:47;29.50;91.60
4293;DHT22;2160;51.172;6.808;2022-08-18T14:43:16;29.60;91.90
4293;DHT22;2160;51.172;6.808;2022-08-18T14:45:46;29.40;91.30
4293;DHT22;2160;51.172;6.808;2022-08-18T14:48:15;29.40;91.10
4293;DHT22;2160;51.172;6.808;2022-08-18T14:50:45;29.30;91.90
4293;DHT22;2160;51.172;6.808;2022-08-18T14:53:15;29.50;92.20
4293;DHT22;2160;51.172;6.808;2022-08-18T14:55:46;29.70;91.90
4293;DHT22;2160;51.172;6.808;2022-08-18T14:58:16;29.80;90.90
4293;DHT22;2160;51.172;6.808;2022-08-18T15:00:43;29.90;90.90
4293;DHT22;2160;51.172;6.808;2022-08-18T15:03:10;30.00;89.40
4293;DHT22;2160;51.172;6.808;2022-08-18T15:05:38;30.00;90.30
4293;DHT22;2160;51.172;6.808;2022-08-18T15:08:05;29.80;89.20
4293;DHT22;2160;51.172;6.808;2022-08-18T15:10:32;30.00;90.40
4293;DHT22;2160;51.172;6.808;2022-08-18T15:13:00;30.20;89.40
4293;DHT22;2160;51.172;6.808;2022-08-18T15:15:28;30.30;88.50
4293;DHT22;2160;51.172;6.808;2022-08-18T15:17:55;30.50;88.30
4293;DHT22;2160;51.172;6.808;2022-08-18T15:20:25;30.60;87.20
4293;DHT22;2160;51.172;6.808;2022-08-18T15:22:52;30.70;86.80
4293;DHT22;2160;51.172;6.808;2022-08-18T15:25:37;30.60;86.10
4293;DHT22;2160;51.172;6.808;2022-08-18T15:28:14;30.70;86.30
4293;DHT22;2160;51.172;6.808;2022-08-18T15:30:43;30.60;85.70
4293;DHT22;2160;51.172;6.808;2022-08-18T15:33:11;30.60;86.00
4293;DHT22;2160;51.172;6.808;2022-08-18T15:35:39;30.60;86.00
4293;DHT22;2160;51.172;6.808;2022-08-18T15:38:06;30.60;84.50
4293;DHT22;2160;51.172;6.808;2022-08-18T15:40:33;30.70;83.70
4293;DHT22;2160;51.172;6.808;2022-08-18T15:43:01;30.80;82.90
4293;DHT22;2160;51.172;6.808;2022-08-18T15:45:35;30.90;83.70
4293;DHT22;2160;51.172;6.808;2022-08-18T15:48:05;30.80;82.60
4293;DHT22;2160;51.172;6.808;2022-08-18T15:50:32;30.80;82.70
4293;DHT22;2160;51.172;6.808;2022-08-18T15:53:02;30.80;83.00
4293;DHT22;2160;51.172;6.808;2022-08-18T15:55:31;30.90;82.70
4293;DHT22;2160;51.172;6.808;2022-08-18T15:57:59;30.80;82.30
4293;DHT22;2160;51.172;6.808;2022-08-18T16:00:28;30.80;81.90
4293;DHT22;2160;51.172;6.808;2022-08-18T16:02:59;30.60;81.50
4293;DHT22;2160;51.172;6.808;2022-08-18T16:05:29;30.70;81.80
4293;DHT22;2160;51.172;6.808;2022-08-18T16:07:58;30.60;82.10
4293;DHT22;2160;51.172;6.808;2022-08-18T16:10:28;30.50;82.70
4293;DHT22;2160;51.172;6.808;2022-08-18T16:12:57;30.50;82.50
4293;DHT22;2160;51.172;6.808;2022-08-18T16:15:24;30.50;82.50
4293;DHT22;2160;51.172;6.808;2022-08-18T16:17:53;30.40;81.80
4293;DHT22;2160;51.172;6.808;2022-08-18T16:20:22;30.30;82.80
4293;DHT22;2160;51.172;6.808;2022-08-18T16:22:51;30.30;82.90
4293;DHT22;2160;51.172;6.808;2022-08-18T16:25:19;30.30;82.60
4293;DHT22;2160;51.172;6.808;2022-08-18T16:27:46;30.30;82.90
4293;DHT22;2160;51.172;6.808;2022-08-18T16:30:15;30.40;82.90
4293;DHT22;2160;51.172;6.808;2022-08-18T16:32:42;30.30;82.00
4293;DHT22;2160;51.172;6.808;2022-08-18T16:35:10;30.30;82.30
4293;DHT22;2160;51.172;6.808;2022-08-18T16:37:40;30.30;82.50
4293;DHT22;2160;51.172;6.808;2022-08-18T16:40:10;30.40;81.90
4293;DHT22;2160;51.172;6.808;2022-08-18T16:42:37;30.30;82.20
4293;DHT22;2160;51.172;6.808;2022-08-18T16:45:08;30.30;82.40
4293;DHT22;2160;51.172;6.808;2022-08-18T16:47:37;30.40;82.90
4293;DHT22;2160;51.172;6.808;2022-08-18T16:50:07;30.40;82.70
4293;DHT22;2160;51.172;6.808;2022-08-18T16:52:35;30.40;82.60
4293;DHT22;2160;51.172;6.808;2022-08-18T16:55:04;30.40;82.80
4293;DHT22;2160;51.172;6.808;2022-08-18T16:57:32;30.30;82.60
4293;DHT22;2160;51.172;6.808;2022-08-18T17:00:16;30.30;82.30
4293;DHT22;2160;51.172;6.808;2022-08-18T17:03:16;30.20;82.80
4293;DHT22;2160;51.172;6.808;2022-08-18T17:06:02;30.20;82.90
4293;DHT22;2160;51.172;6.808;2022-08-18T17:08:30;30.20;83.30
4293;DHT22;2160;51.172;6.808;2022-08-18T17:11:00;30.10;84.20
4293;DHT22;2160;51.172;6.808;2022-08-18T17:13:27;30.20;83.60
4293;DHT22;2160;51.172;6.808;2022-08-18T17:15:55;30.10;82.90
4293;DHT22;2160;51.172;6.808;2022-08-18T17:18:22;30.00;81.70
4293;DHT22;2160;51.172;6.808;2022-08-18T17:20:49;30.00;82.90
4293;DHT22;2160;51.172;6.808;2022-08-18T17:23:16;30.00;83.00
4293;DHT22;2160;51.172;6.808;2022-08-18T17:25:44;30.10;82.30
4293;DHT22;2160;51.172;6.808;2022-08-18T17:28:13;30.10;82.40
4293;DHT22;2160;51.172;6.808;2022-08-18T17:30:45;30.10;82.20
4293;DHT22;2160;51.172;6.808;2022-08-18T17:33:16;30.00;82.30
4293;DHT22;2160;51.172;6.808;2022-08-18T17:35:45;29.90;83.20
4293;DHT22;2160;51.172;6.808;2022-08-18T17:38:18;29.90;84.10
4293;DHT22;2160;51.172;6.808;2022-08-18T17:40:48;30.00;84.60
4293;DHT22;2160;51.172;6.808;2022-08-18T17:43:19;29.90;84.70
4293;DHT22;2160;51.172;6.808;2022-08-18T17:45:52;29.90;85.20
4293;DHT22;2160;51.172;6.808;2022-08-18T17:48:22;29.90;85.70
4293;DHT22;2160;51.172;6.808;2022-08-18T17:50:55;29.80;86.40
4293;DHT22;2160;51.172;6.808;2022-08-18T17:53:41;29.80;86.60
4293;DHT22;2160;51.172;6.808;2022-08-18T17:56:15;29.70;86.90
4293;DHT22;2160;51.172;6.808;2022-08-18T17:58:49;29.70;87.10
4293;DHT22;2160;51.172;6.808;2022-08-18T18:01:20;29.70;87.10
4293;DHT22;2160;51.172;6.808;2022-08-18T18:03:48;29.70;87.40
4293;DHT22;2160;51.172;6.808;2022-08-18T18:06:20;29.70;87.60
4293;DHT22;2160;51.172;6.808;2022-08-18T18:08:57;29.70;88.10
4293;DHT22;2160;51.172;6.808;2022-08-18T18:11:29;29.60;87.60
4293;DHT22;2160;51.172;6.808;2022-08-18T18:13:59;29.60;88.00
4293;DHT22;2160;51.172;6.808;2022-08-18T18:16:29;29.60;88.10
4293;DHT22;2160;51.172;6.808;2022-08-18T18:19:02;29.70;87.80
4293;DHT22;2160;51.172;6.808;2022-08-18T18:21:31;29.70;87.80
4293;DHT22;2160;51.172;6.808;2022-08-18T18:24:12;29.70;87.50
4293;DHT22;2160;51.172;6.808;2022-08-18T18:26:42;29.40;87.50
4293;DHT22;2160;51.172;6.808;2022-08-18T18:29:30;29.30;87.80
4293;DHT22;2160;51.172;6.808;2022-08-18T18:32:01;29.10;88.80
4293;DHT22;2160;51.172;6.808;2022-08-18T18:34:31;29.20;88.10
4293;DHT22;2160;51.172;6.808;2022-08-18T18:38:24;29.20;88.10
4293;DHT22;2160;51.172;6.808;2022-08-18T18:43:41;29.20;89.20
4293;DHT22;2160;51.172;6.808;2022-08-18T18:46:26;29.10;89.30
4293;DHT22;2160;51.172;6.808;2022-08-18T18:49:41;29.10;89.20
4293;DHT22;2160;51.172;6.808;2022-08-18T18:55:01;28.80;89.90
4293;DHT22;2160;51.172;6.808;2022-08-18T18:57:37;29.00;90.00
4293;DHT22;2160;51.172;6.808;2022-08-18T19:07:57;28.80;89.50
4293;DHT22;2160;51.172;6.808;2022-08-18T19:10:34;28.80;90.10
4293;DHT22;2160;51.172;6.808;2022-08-18T19:13:07;28.60;90.00
4293;DHT22;2160;51.172;6.808;2022-08-18T19:15:46;28.70;90.00
4293;DHT22;2160;51.172;6.808;2022-08-18T19:18:24;28.70;89.70
4293;DHT22;2160;51.172;6.808;2022-08-18T19:20:54;28.60;90.30
4293;DHT22;2160;51.172;6.808;2022-08-18T19:23:30;28.60;90.40
4293;DHT22;2160;51.172;6.808;2022-08-18T19:26:00;28.70;90.60
4293;DHT22;2160;51.172;6.808;2022-08-18T19:28:33;28.70;90.70
4293;DHT22;2160;51.172;6.808;2022-08-18T19:31:06;28.70;90.60
4293;DHT22;2160;51.172;6.808;2022-08-18T19:33:50;28.60;90.70
4293;DHT22;2160;51.172;6.808;2022-08-18T19:36:27;28.60;90.80
4293;DHT22;2160;51.172;6.808;2022-08-18T19:39:09;28.60;90.50
4293;DHT22;2160;51.172;6.808;2022-08-18T19:41:43;28.50;90.40
4293;DHT22;2160;51.172;6.808;2022-08-18T19:44:29;28.40;90.40
4293;DHT22;2160;51.172;6.808;2022-08-18T19:47:02;28.40;90.50
4293;DHT22;2160;51.172;6.808;2022-08-18T19:49:40;28.40;90.70
4293;DHT22;2160;51.172;6.808;2022-08-18T19:52:23;28.40;90.80
4293;DHT22;2160;51.172;6.808;2022-08-18T19:55:13;28.40;90.80
4293;DHT22;2160;51.172;6.808;2022-08-18T19:58:05;28.30;90.80
4293;DHT22;2160;51.172;6.808;2022-08-18T20:00:42;28.30;90.80
4293;DHT22;2160;51.172;6.808;2022-08-18T20:03:42;28.30;91.40
4293;DHT22;2160;51.172;6.808;2022-08-18T20:06:48;28.30;91.20
4293;DHT22;2160;51.172;6.808;2022-08-18T20:09:48;28.30;91.30
4293;DHT22;2160;51.172;6.808;2022-08-18T20:12:36;28.20;91.50
4293;DHT22;2160;51.172;6.808;2022-08-18T20:15:12;28.20;91.60
4293;DHT22;2160;51.172;6.808;2022-08-18T20:18:03;28.20;91.80
4293;DHT22;2160;51.172;6.808;2022-08-18T20:20:33;28.10;92.00
4293;DHT22;2160;51.172;6.808;2022-08-18T20:23:31;28.00;92.40
4293;DHT22;2160;51.172;6.808;2022-08-18T20:25:59;28.00;92.70
4293;DHT22;2160;51.172;6.808;2022-08-18T20:28:36;27.90;93.00
4293;DHT22;2160;51.172;6.808;2022-08-18T20:31:10;27.90;93.10
4293;DHT22;2160;51.172;6.808;2022-08-18T20:33:44;27.80;93.30
4293;DHT22;2160;51.172;6.808;2022-08-18T20:36:19;27.70;93.70
4293;DHT22;2160;51.172;6.808;2022-08-18T20:38:50;27.60;93.90
4293;DHT22;2160;51.172;6.808;2022-08-18T20:41:39;27.60;94.20
4293;DHT22;2160;51.172;6.808;2022-08-18T20:44:43;27.50;94.50
4293;DHT22;2160;51.172;6.808;2022-08-18T20:47:42;27.50;94.70
4293;DHT22;2160;51.172;6.808;2022-08-18T20:50:29;27.40;95.10
4293;DHT22;2160;51.172;6.808;2022-08-18T20:53:11;27.30;95.30
4293;DHT22;2160;51.172;6.808;2022-08-18T20:55:47;27.20;95.60
4293;DHT22;2160;51.172;6.808;2022-08-18T20:58:19;27.10;95.90
4293;DHT22;2160;51.172;6.808;2022-08-18T21:00:50;27.10;96.20
4293;DHT22;2160;51.172;6.808;2022-08-18T21:03:19;27.00;96.40
4293;DHT22;2160;51.172;6.808;2022-08-18T21:05:56;27.00;96.60
4293;DHT22;2160;51.172;6.808;2022-08-18T21:08:26;26.90;96.80
4293;DHT22;2160;51.172;6.808;2022-08-18T21:10:56;26.80;97.30
4293;DHT22;2160;51.172;6.808;2022-08-18T21:13:32;26.70;97.70
4293;DHT22;2160;51.172;6.808;2022-08-18T21:16:05;26.70;98.00